EDT,Max TemperatureF,Mean TemperatureF,Min TemperatureF,Max Dew PointF,MeanDew PointF,Min DewpointF,Max Humidity, Mean Humidity, Min Humidity, Max Sea Level PressureIn, Mean Sea Level PressureIn, Min Sea Level PressureIn, Max VisibilityMiles, Mean VisibilityMiles, Min VisibilityMiles, Max Wind SpeedMPH, Mean Wind SpeedMPH, Max Gust SpeedMPH,PrecipitationIn, CloudCover, Events, WindDirDegrees
2013-3-1,60,52,44,43,35,28,76,58,29,30.04,29.99,29.94,10,10,7,12,6,18,0.00,1,,307
2013-3-2,55,46,37,32,28,21,66,52,26,30.08,30.03,29.98,10,10,10,20,6,37,0.00,2,,312
2013-3-3,50,40,30,27,25,23,80,58,35,30.18,30.08,30.03,10,10,10,15,4,21,0.00,3,,299
2013-3-4,64,45,26,30,25,18,87,59,19,30.25,30.18,30.13,10,10,7,8,1,,0.00,0,,305
2013-3-5,73,54,35,54,41,30,87,68,41,30.20,30.10,29.99,10,10,10,20,5,24,0.00,0,,221
2013-3-6,66,54,42,57,36,19,77,52,18,30.18,30.05,29.94,10,10,8,20,13,30,0.00,3,,295
2013-3-7,66,50,33,37,31,27,81,59,24,30.25,30.20,30.15,10,10,5,9,5,,0.00,0,,335
2013-3-8,75,54,33,39,34,25,93,63,15,30.25,30.21,30.14,10,8,3,10,2,17,0.00,0,,29
2013-3-9,73,56,39,45,40,34,87,61,23,30.27,30.22,30.17,10,8,2,9,3,,0.00,0,,65
2013-3-10,78,64,51,48,46,43,77,59,32,30.21,30.15,30.09,10,10,10,9,4,17,0.00,0,,84
2013-3-11,78,66,53,54,50,46,77,64,41,30.14,30.02,29.91,10,10,10,15,2,20,0.00,1,,167
2013-3-12,71,62,53,57,52,39,82,67,46,30.07,29.94,29.85,10,9,4,14,7,21,0.02,4,,222
2013-3-13,73,58,42,39,33,21,66,46,14,30.21,30.13,30.07,10,10,10,15,5,22,0.00,0,,320
2013-3-14,66,52,37,37,25,19,62,41,18,30.31,30.24,30.20,10,10,10,15,6,20,0.00,0,,350
2013-3-15,73,52,32,34,28,23,75,51,22,30.32,30.24,30.15,10,10,6,10,2,,0.00,0,,286
2013-3-16,75,56,37,46,34,30,76,55,22,30.20,30.14,30.08,10,10,3,16,3,20,0.00,0,,224
2013-3-17,75,58,42,57,46,36,94,70,29,30.13,30.08,30.03,10,8,0,12,2,12,0.01,5,Fog,188
2013-3-18,77,67,57,63,58,54,94,78,50,30.07,29.99,29.90,10,9,2,12,3,,0.04,4,,194
2013-3-19,82,70,59,59,56,36,88,69,25,30.04,29.97,29.93,10,7,0,17,3,,0.00,3,Fog,340
2013-3-20,71,63,55,59,56,54,94,78,57,30.02,29.94,29.84,10,9,1,16,4,24,0.25,5,Rain-Thunderstorm,27
2013-3-21,68,54,41,54,40,25,94,72,20,30.01,29.94,29.90,10,9,0,13,5,,0.00,1,,305
2013-3-22,73,56,39,46,40,30,93,65,24,30.04,29.98,29.93,10,10,7,9,3,,0.00,3,,61
2013-3-23,82,68,53,70,58,46,94,76,58,30.00,29.90,29.79,10,9,4,21,3,32,0.00,5,,178
2013-3-24,78,71,64,70,64,61,94,85,65,29.83,29.71,29.63,10,8,1,30,8,41,0.00,5,Rain,201
2013-3-25,68,60,51,61,41,25,94,56,20,30.07,29.88,29.72,10,10,8,16,9,22,0.00,1,,285
2013-3-26,59,49,39,39,24,16,87,42,21,30.27,30.16,30.08,10,10,10,20,9,25,0.00,0,,322
2013-3-27,60,46,32,36,29,23,81,61,23,30.35,30.28,30.23,10,10,10,12,3,18,0.00,0,,321
2013-3-28,71,52,33,37,32,27,87,62,19,30.33,30.28,30.21,10,10,6,13,2,17,0.00,0,,348
2013-3-29,73,54,35,43,35,28,87,60,19,30.35,30.29,30.21,10,10,10,9,2,,0.00,0,,347
2013-3-30,77,58,39,46,39,36,87,61,29,30.29,30.22,30.14,10,10,10,14,2,20,0.00,0,,217
2013-3-31,80,65,50,54,49,45,88,69,32,30.17,30.10,30.02,10,10,7,22,4,23,0.00,0,,194